createdAt,value
2023-04-16T00:23:43.066Z,54.4
2023-04-16T00:53:43.898Z,54.5
2023-04-16T01:23:44.308Z,54.6
2023-04-16T01:53:44.677Z,54.7
2023-04-16T02:23:45.072Z,54.8
2023-04-16T02:53:45.489Z,54.8
2023-04-16T03:23:46.015Z,54.9
2023-04-16T03:53:46.440Z,54.9
2023-04-16T04:53:57.325Z,55
2023-04-16T05:54:08.588Z,54.7
2023-04-16T06:24:09.410Z,54.6
2023-04-16T06:54:09.807Z,54.6
2023-04-16T07:24:10.685Z,54.5
2023-04-16T07:54:11.155Z,54.7
2023-04-16T08:24:11.813Z,54.8
2023-04-16T08:54:12.288Z,56.4
2023-04-16T09:24:12.732Z,55.9
2023-04-16T09:54:13.315Z,55.6
2023-04-16T10:24:13.838Z,55.7
2023-04-16T11:24:26.193Z,55.8
2023-04-16T12:24:37.625Z,56.4
2023-04-16T12:54:38.028Z,55.8
2023-04-16T13:24:38.479Z,55.6
2023-04-16T13:54:39.218Z,55.5
2023-04-16T14:24:39.681Z,56.2
2023-04-16T14:54:40.564Z,55.7
2023-04-16T15:24:41.171Z,55.5
2023-04-16T15:54:41.618Z,55.4
2023-04-16T16:24:42.046Z,55.3
2023-04-16T16:54:42.918Z,55.7
2023-04-16T17:24:43.350Z,55.4
2023-04-16T17:54:44.004Z,55.4
2023-04-16T18:54:55.576Z,55.3
2023-04-16T19:55:06.627Z,55.1
2023-04-16T20:25:07.551Z,55.3
2023-04-16T20:55:08.026Z,55.3
2023-04-16T21:25:08.793Z,55.2
2023-04-16T21:55:09.389Z,55.3
2023-04-16T22:25:09.869Z,55.3
2023-04-16T22:55:10.317Z,55.4
2023-04-16T23:25:10.737Z,55.5
2023-04-16T23:55:11.112Z,55.7
